createdAt,value
2018-07-25T00:00:15.913Z,0.00
2018-07-25T00:01:15.950Z,0.00
2018-07-25T00:02:16.032Z,0.00
2018-07-25T00:03:16.023Z,0.00
2018-07-25T00:04:15.997Z,0.00
2018-07-25T00:05:15.998Z,0.00
2018-07-25T00:06:16.096Z,0.00
2018-07-25T00:07:16.045Z,0.00
2018-07-25T00:08:16.171Z,0.00
2018-07-25T00:09:16.067Z,0.00
2018-07-25T00:10:16.750Z,0.00
2018-07-25T00:11:16.098Z,0.00
2018-07-25T00:12:16.138Z,0.00
2018-07-25T00:13:16.179Z,0.00
2018-07-25T00:14:16.150Z,0.00
2018-07-25T00:15:16.207Z,0.00
2018-07-25T00:16:16.164Z,0.00
2018-07-25T00:17:16.251Z,0.00
2018-07-25T00:18:16.239Z,0.00
2018-07-25T00:19:16.244Z,0.00
2018-07-25T00:20:16.250Z,0.00
2018-07-25T00:21:16.345Z,0.00
2018-07-25T00:22:16.270Z,0.00
2018-07-25T00:23:16.318Z,0.00
2018-07-25T00:24:16.282Z,0.00
2018-07-25T00:25:16.320Z,0.00
2018-07-25T00:26:16.380Z,0.00
2018-07-25T00:27:16.366Z,0.00
2018-07-25T00:28:16.381Z,0.00
2018-07-25T00:29:16.378Z,0.00
2018-07-25T00:30:16.452Z,0.00
2018-07-25T00:31:16.495Z,0.00
2018-07-25T00:32:16.466Z,0.00
2018-07-25T00:33:16.793Z,0.00
2018-07-25T00:34:16.479Z,0.00
2018-07-25T00:35:16.506Z,0.00
2018-07-25T00:36:16.539Z,0.00
2018-07-25T00:37:16.521Z,0.00
2018-07-25T00:38:16.490Z,0.00
2018-07-25T00:39:16.544Z,0.00
2018-07-25T00:40:16.562Z,0.00
2018-07-25T00:41:16.544Z,0.00
2018-07-25T00:42:16.608Z,0.00
2018-07-25T00:43:16.583Z,0.00
2018-07-25T00:44:16.650Z,0.00
2018-07-25T00:45:16.676Z,0.00
2018-07-25T00:46:16.646Z,0.00
2018-07-25T00:47:16.674Z,0.00
2018-07-25T00:48:16.709Z,0.00
2018-07-25T00:49:16.806Z,0.00
2018-07-25T00:50:16.736Z,0.00
2018-07-25T00:51:16.695Z,0.00
2018-07-25T00:52:16.734Z,0.00
2018-07-25T00:53:16.829Z,0.00
2018-07-25T00:54:16.746Z,0.00
2018-07-25T00:55:16.798Z,0.00
2018-07-25T00:56:16.775Z,0.00
2018-07-25T00:57:16.797Z,0.00
2018-07-25T00:58:16.857Z,0.00
2018-07-25T00:59:16.822Z,0.00
2018-07-25T01:00:16.840Z,0.00
2018-07-25T01:01:16.879Z,0.00
2018-07-25T01:02:16.893Z,0.00
2018-07-25T01:03:16.944Z,0.00
2018-07-25T01:04:16.927Z,0.00
2018-07-25T01:05:16.941Z,0.00
2018-07-25T01:06:17.621Z,0.00
2018-07-25T01:07:16.941Z,0.00
2018-07-25T01:08:17.014Z,0.00
2018-07-25T01:09:16.999Z,0.00
2018-07-25T01:10:17.121Z,0.00
2018-07-25T01:11:17.003Z,0.00
2018-07-25T01:12:17.277Z,0.00
2018-07-25T01:13:17.064Z,0.00
2018-07-25T01:14:17.078Z,0.00
2018-07-25T01:15:17.093Z,0.00
2018-07-25T01:16:17.171Z,0.00
2018-07-25T01:17:17.122Z,0.00
2018-07-25T01:18:17.174Z,0.00
2018-07-25T01:19:17.130Z,0.00
2018-07-25T01:20:17.212Z,0.00
2018-07-25T01:21:17.151Z,0.00
2018-07-25T01:22:17.262Z,0.00
2018-07-25T01:23:17.177Z,0.00
2018-07-25T01:24:17.198Z,0.00
2018-07-25T01:25:17.213Z,0.00
2018-07-25T01:26:17.351Z,0.00
2018-07-25T01:27:17.267Z,0.00
2018-07-25T01:28:17.316Z,0.00
2018-07-25T01:29:17.295Z,0.00
2018-07-25T01:30:17.303Z,0.00
2018-07-25T01:31:17.316Z,0.00
2018-07-25T01:32:17.479Z,0.00
2018-07-25T01:33:17.340Z,0.00
2018-07-25T01:34:17.381Z,0.00
2018-07-25T01:35:17.384Z,0.00
2018-07-25T01:36:17.414Z,0.00
2018-07-25T01:37:17.464Z,0.00
2018-07-25T01:38:17.428Z,0.00
2018-07-25T01:39:17.513Z,0.00
2018-07-25T01:40:17.448Z,0.00
2018-07-25T01:41:17.461Z,0.00
2018-07-25T01:42:17.481Z,0.00
2018-07-25T01:43:17.513Z,0.00
2018-07-25T01:44:17.547Z,0.00
2018-07-25T01:45:17.561Z,0.00
2018-07-25T01:46:17.511Z,0.00
2018-07-25T01:47:17.550Z,0.00
2018-07-25T01:48:17.557Z,0.00
2018-07-25T01:49:17.593Z,0.00
2018-07-25T01:50:17.608Z,0.00
2018-07-25T01:51:17.595Z,0.00
2018-07-25T01:52:18.246Z,0.00
2018-07-25T01:53:17.661Z,0.00
2018-07-25T01:54:17.671Z,0.00
2018-07-25T01:55:17.668Z,0.00
2018-07-25T01:56:17.709Z,0.00
2018-07-25T01:57:17.687Z,0.00
2018-07-25T01:58:17.780Z,0.00
2018-07-25T01:59:17.725Z,0.00
2018-07-25T02:00:17.755Z,0.00
2018-07-25T02:01:17.786Z,0.00
2018-07-25T02:02:17.780Z,0.00
2018-07-25T02:03:17.825Z,0.00
2018-07-25T02:04:17.789Z,0.00
2018-07-25T02:05:18.054Z,0.00
2018-07-25T02:06:17.831Z,0.00
2018-07-25T02:07:17.827Z,0.00
2018-07-25T02:08:17.884Z,0.00
2018-07-25T02:09:17.864Z,0.00
2018-07-25T02:10:17.971Z,0.00
2018-07-25T02:11:17.901Z,0.00
2018-07-25T02:12:17.919Z,0.00
2018-07-25T02:13:17.918Z,0.00
2018-07-25T02:14:17.969Z,0.00
2018-07-25T02:15:17.993Z,0.00
2018-07-25T02:16:17.987Z,0.00
2018-07-25T02:17:18.025Z,0.00
2018-07-25T02:18:18.010Z,0.00
2018-07-25T02:19:18.014Z,0.00
2018-07-25T02:20:18.031Z,0.00
2018-07-25T02:21:18.070Z,0.00
2018-07-25T02:22:18.121Z,0.00
2018-07-25T02:23:18.163Z,0.00
2018-07-25T02:24:18.067Z,0.00
2018-07-25T02:25:18.134Z,0.00
2018-07-25T02:26:18.165Z,0.00
2018-07-25T02:27:18.155Z,0.00
2018-07-25T02:28:18.187Z,0.00
2018-07-25T02:29:18.208Z,0.00
2018-07-25T02:30:18.175Z,0.00
2018-07-25T02:31:18.256Z,0.00
2018-07-25T02:32:18.266Z,0.00
2018-07-25T02:33:18.450Z,0.00
2018-07-25T02:34:18.227Z,0.00
2018-07-25T02:35:18.256Z,0.00
2018-07-25T02:36:18.268Z,0.00
2018-07-25T02:37:18.367Z,0.00
2018-07-25T02:38:18.320Z,0.00
2018-07-25T02:39:18.531Z,0.00
2018-07-25T02:40:18.325Z,0.00
2018-07-25T02:41:18.349Z,0.00
2018-07-25T02:42:18.372Z,0.00
2018-07-25T02:43:18.392Z,0.00
2018-07-25T02:44:18.396Z,0.00
2018-07-25T02:45:18.526Z,0.00
2018-07-25T02:46:18.442Z,0.00
2018-07-25T02:47:18.439Z,0.00
2018-07-25T02:48:18.439Z,0.00
2018-07-25T02:49:18.476Z,0.00
2018-07-25T02:50:18.530Z,0.00
2018-07-25T02:51:18.488Z,0.00
2018-07-25T02:52:18.494Z,0.00
2018-07-25T02:53:18.577Z,0.00
2018-07-25T02:54:18.528Z,0.00
2018-07-25T02:55:18.624Z,0.00
2018-07-25T02:56:18.607Z,0.00
2018-07-25T02:57:18.613Z,0.00
2018-07-25T02:58:18.598Z,0.00
2018-07-25T02:59:18.601Z,0.00
2018-07-25T03:00:18.645Z,0.00
2018-07-25T03:01:18.666Z,0.00
2018-07-25T03:02:18.701Z,0.00
2018-07-25T03:03:18.699Z,0.00
2018-07-25T03:04:18.683Z,0.00
2018-07-25T03:05:18.707Z,0.00
2018-07-25T03:06:18.700Z,5.63
2018-07-25T03:07:18.768Z,5.63
2018-07-25T03:08:18.760Z,5.63
2018-07-25T03:09:18.805Z,5.63
2018-07-25T03:10:18.772Z,5.63
2018-07-25T03:11:18.779Z,5.63
2018-07-25T03:12:18.797Z,5.63
2018-07-25T03:13:18.823Z,5.63
2018-07-25T03:14:18.883Z,5.63
2018-07-25T03:15:18.836Z,11.25
2018-07-25T03:16:18.860Z,11.25
2018-07-25T03:17:18.864Z,11.25
2018-07-25T03:18:18.903Z,11.25
2018-07-25T03:19:18.954Z,11.25
2018-07-25T03:20:18.978Z,11.25
2018-07-25T03:21:18.924Z,11.25
2018-07-25T03:22:18.964Z,16.88
2018-07-25T03:23:18.961Z,16.88
2018-07-25T03:24:19.006Z,16.88
2018-07-25T03:25:19.026Z,16.88
2018-07-25T03:26:19.034Z,16.88
2018-07-25T03:27:19.102Z,16.88
2018-07-25T03:28:19.048Z,16.88
2018-07-25T03:29:19.053Z,22.50
2018-07-25T03:30:19.093Z,22.50
2018-07-25T03:31:19.236Z,22.50
2018-07-25T03:32:19.127Z,22.50
2018-07-25T03:33:19.085Z,22.50
2018-07-25T03:34:19.109Z,22.50
2018-07-25T03:35:19.164Z,28.13
2018-07-25T03:36:19.169Z,28.13
2018-07-25T03:37:19.312Z,28.13
2018-07-25T03:38:19.188Z,28.13
2018-07-25T03:39:19.313Z,28.13
2018-07-25T03:40:19.214Z,33.75
2018-07-25T03:41:19.233Z,33.75
2018-07-25T03:42:19.273Z,39.38
2018-07-25T03:43:19.297Z,39.38
2018-07-25T03:44:19.291Z,39.38
2018-07-25T03:45:19.315Z,39.38
2018-07-25T03:46:19.291Z,39.38
2018-07-25T03:47:19.313Z,45.00
2018-07-25T03:48:19.366Z,45.00
2018-07-25T03:49:19.368Z,50.63
2018-07-25T03:50:19.444Z,50.63
2018-07-25T03:51:19.422Z,50.63
2018-07-25T03:52:19.385Z,56.25
2018-07-25T03:53:19.418Z,56.25
2018-07-25T03:54:19.451Z,56.25
2018-07-25T03:55:19.418Z,67.50
2018-07-25T03:56:19.430Z,73.13
2018-07-25T03:57:19.498Z,84.38
2018-07-25T03:58:19.488Z,90.00
2018-07-25T03:59:19.574Z,95.63
2018-07-25T04:00:19.500Z,101.25
2018-07-25T04:01:19.574Z,95.63
2018-07-25T04:02:19.569Z,106.88
2018-07-25T04:03:19.553Z,118.13
2018-07-25T04:04:19.554Z,129.38
2018-07-25T04:05:19.563Z,135.00
2018-07-25T04:06:19.707Z,140.63
2018-07-25T04:07:19.670Z,157.50
2018-07-25T04:08:19.707Z,174.38
2018-07-25T04:09:19.640Z,185.63
2018-07-25T04:10:19.653Z,180.00
2018-07-25T04:11:19.677Z,180.00
2018-07-25T04:12:19.718Z,185.63
2018-07-25T04:13:19.726Z,191.25
2018-07-25T04:14:19.722Z,174.38
2018-07-25T04:15:19.724Z,168.75
2018-07-25T04:16:19.750Z,180.00
2018-07-25T04:17:19.780Z,180.00
2018-07-25T04:18:19.807Z,180.00
2018-07-25T04:19:19.813Z,185.63
2018-07-25T04:20:19.803Z,196.88
2018-07-25T04:21:19.820Z,185.63
2018-07-25T04:22:19.836Z,163.13
2018-07-25T04:23:19.863Z,140.63
2018-07-25T04:24:19.905Z,151.88
2018-07-25T04:25:19.895Z,157.50
2018-07-25T04:26:19.897Z,163.13
2018-07-25T04:27:19.915Z,140.63
2018-07-25T04:28:19.953Z,146.25
2018-07-25T04:29:19.956Z,168.75
2018-07-25T04:30:19.966Z,180.00
2018-07-25T04:31:20.330Z,196.88
2018-07-25T04:32:19.963Z,196.88
2018-07-25T04:33:20.001Z,202.50
2018-07-25T04:34:20.038Z,208.13
2018-07-25T04:35:20.042Z,213.75
2018-07-25T04:36:20.186Z,225.00
2018-07-25T04:37:20.057Z,236.25
2018-07-25T04:38:20.103Z,253.13
2018-07-25T04:39:20.096Z,253.13
2018-07-25T04:40:20.101Z,270.00
2018-07-25T04:41:20.249Z,202.50
2018-07-25T04:42:20.204Z,253.13
2018-07-25T04:43:20.163Z,258.75
2018-07-25T04:44:20.212Z,219.38
2018-07-25T04:45:20.189Z,219.38
2018-07-25T04:46:20.297Z,281.25
2018-07-25T04:47:20.231Z,281.25
2018-07-25T04:48:20.229Z,241.88
2018-07-25T04:49:20.263Z,281.25
2018-07-25T04:50:20.264Z,292.50
2018-07-25T04:51:20.294Z,303.75
2018-07-25T04:52:20.351Z,315.00
2018-07-25T04:53:20.323Z,337.50
2018-07-25T04:54:20.497Z,309.38
2018-07-25T04:55:20.353Z,225.00
2018-07-25T04:56:20.361Z,343.13
2018-07-25T04:57:20.401Z,337.50
2018-07-25T04:58:20.379Z,281.25
2018-07-25T04:59:20.448Z,326.25
2018-07-25T05:00:20.435Z,320.63
2018-07-25T05:01:20.452Z,320.63
2018-07-25T05:02:20.456Z,213.75
2018-07-25T05:03:20.460Z,208.13
2018-07-25T05:04:20.519Z,151.88
2018-07-25T05:05:20.513Z,151.88
2018-07-25T05:06:20.524Z,320.63
2018-07-25T05:07:20.711Z,163.13
2018-07-25T05:08:20.602Z,163.13
2018-07-25T05:09:20.643Z,151.88
2018-07-25T05:10:20.677Z,151.88
2018-07-25T05:11:20.660Z,180.00
2018-07-25T05:12:20.625Z,157.50
2018-07-25T05:13:20.651Z,157.50
2018-07-25T05:14:20.684Z,168.75
2018-07-25T05:15:20.927Z,168.75
2018-07-25T05:16:20.715Z,180.00
2018-07-25T05:17:20.691Z,450.00
2018-07-25T05:18:20.730Z,410.63
2018-07-25T05:19:20.785Z,388.13
2018-07-25T05:20:20.808Z,506.25
2018-07-25T05:21:20.827Z,534.38
2018-07-25T05:22:20.792Z,534.38
2018-07-25T05:23:20.889Z,545.63
2018-07-25T05:24:20.813Z,585.00
2018-07-25T05:25:20.878Z,596.25
2018-07-25T05:26:20.882Z,528.75
2018-07-25T05:27:20.868Z,416.25
2018-07-25T05:28:20.912Z,416.25
2018-07-25T05:29:20.923Z,421.88
2018-07-25T05:30:20.947Z,613.13
2018-07-25T05:31:20.939Z,309.38
2018-07-25T05:32:21.006Z,230.63
2018-07-25T05:33:21.008Z,292.50
2018-07-25T05:34:21.014Z,241.88
2018-07-25T05:35:21.006Z,247.50
2018-07-25T05:36:21.011Z,253.13
2018-07-25T05:37:21.083Z,253.13
2018-07-25T05:38:21.077Z,253.13
2018-07-25T05:39:21.115Z,348.75
2018-07-25T05:40:21.118Z,613.13
2018-07-25T05:41:21.134Z,613.13
2018-07-25T05:42:21.144Z,635.63
2018-07-25T05:43:21.140Z,596.25
2018-07-25T05:44:21.228Z,607.50
2018-07-25T05:45:21.189Z,607.50
2018-07-25T05:46:21.209Z,601.88
2018-07-25T05:47:21.222Z,388.13
2018-07-25T05:48:21.238Z,511.88
2018-07-25T05:49:21.265Z,585.00
2018-07-25T05:50:21.306Z,545.63
2018-07-25T05:51:21.313Z,579.38
2018-07-25T05:52:21.303Z,601.88
2018-07-25T05:53:21.360Z,613.13
2018-07-25T05:54:21.355Z,607.50
2018-07-25T05:55:21.444Z,624.38
2018-07-25T05:56:21.403Z,641.25
2018-07-25T05:57:21.406Z,663.75
2018-07-25T05:58:21.467Z,646.88
2018-07-25T05:59:21.477Z,646.88
2018-07-25T06:00:21.477Z,641.25
2018-07-25T06:01:21.491Z,652.50
2018-07-25T06:02:21.485Z,618.75
2018-07-25T06:03:21.573Z,613.13
2018-07-25T06:04:21.556Z,613.13
2018-07-25T06:05:21.546Z,618.75
2018-07-25T06:06:21.600Z,613.13
2018-07-25T06:07:21.609Z,607.50
2018-07-25T06:08:21.627Z,607.50
2018-07-25T06:09:21.609Z,607.50
2018-07-25T06:10:21.642Z,613.13
2018-07-25T06:11:21.637Z,601.88
2018-07-25T06:12:21.730Z,601.88
2018-07-25T06:13:21.700Z,590.63
2018-07-25T06:14:21.750Z,585.00
2018-07-25T06:15:21.773Z,579.38
2018-07-25T06:16:21.780Z,573.75
2018-07-25T06:17:21.774Z,573.75
2018-07-25T06:18:21.800Z,568.13
2018-07-25T06:19:21.796Z,568.13
2018-07-25T06:20:21.911Z,568.13
2018-07-25T06:21:21.846Z,568.13
2018-07-25T06:22:21.886Z,568.13
2018-07-25T06:23:21.921Z,568.13
2018-07-25T06:24:21.901Z,573.75
2018-07-25T06:25:22.038Z,579.38
2018-07-25T06:26:21.990Z,573.75
2018-07-25T06:27:21.962Z,573.75
2018-07-25T06:28:22.030Z,568.13
2018-07-25T06:29:22.000Z,562.50
2018-07-25T06:30:22.014Z,556.88
2018-07-25T06:31:22.148Z,556.88
2018-07-25T06:32:22.077Z,545.63
2018-07-25T06:33:22.127Z,540.00
2018-07-25T06:34:22.116Z,528.75
2018-07-25T06:35:22.141Z,517.50
2018-07-25T06:36:22.134Z,511.88
2018-07-25T06:37:22.200Z,500.63
2018-07-25T06:38:22.247Z,489.38
2018-07-25T06:39:22.259Z,495.00
2018-07-25T06:40:22.249Z,483.75
2018-07-25T06:41:22.263Z,478.13
2018-07-25T06:42:22.286Z,472.50
2018-07-25T06:43:22.415Z,478.13
2018-07-25T06:44:22.337Z,461.25
2018-07-25T06:45:22.313Z,455.63
2018-07-25T06:46:22.380Z,450.00
2018-07-25T06:47:22.485Z,438.75
2018-07-25T06:48:22.417Z,433.13
2018-07-25T06:49:22.404Z,427.50
2018-07-25T06:50:22.432Z,421.88
2018-07-25T06:51:22.442Z,410.63
2018-07-25T06:52:22.460Z,405.00
2018-07-25T06:53:22.499Z,393.75
2018-07-25T06:54:22.567Z,388.13
2018-07-25T06:55:22.506Z,376.88
2018-07-25T06:56:22.565Z,365.63
2018-07-25T06:57:22.647Z,348.75
2018-07-25T06:58:22.616Z,337.50
2018-07-25T06:59:22.622Z,320.63
2018-07-25T07:00:22.618Z,298.13
2018-07-25T07:01:22.645Z,275.63
2018-07-25T07:02:22.723Z,247.50
2018-07-25T07:03:22.743Z,230.63
2018-07-25T07:04:22.720Z,219.38
2018-07-25T07:05:22.712Z,219.38
2018-07-25T07:06:22.757Z,213.75
2018-07-25T07:07:22.764Z,213.75
2018-07-25T07:08:22.783Z,208.13
2018-07-25T07:09:22.804Z,208.13
2018-07-25T07:10:22.938Z,208.13
2018-07-25T07:11:22.817Z,202.50
2018-07-25T07:12:22.859Z,202.50
2018-07-25T07:13:22.888Z,202.50
2018-07-25T07:14:22.891Z,202.50
2018-07-25T07:15:22.980Z,202.50
2018-07-25T07:16:22.953Z,202.50
2018-07-25T07:17:22.973Z,202.50
2018-07-25T07:18:22.974Z,202.50
2018-07-25T07:19:23.014Z,196.88
2018-07-25T07:20:23.051Z,196.88
2018-07-25T07:21:23.038Z,196.88
2018-07-25T07:22:23.039Z,196.88
2018-07-25T07:23:23.095Z,196.88
2018-07-25T07:24:23.116Z,196.88
2018-07-25T07:25:23.089Z,196.88
2018-07-25T07:26:23.179Z,196.88
2018-07-25T07:27:23.197Z,196.88
2018-07-25T07:28:23.290Z,196.88
2018-07-25T07:29:23.180Z,196.88
2018-07-25T07:30:23.234Z,196.88
2018-07-25T07:31:23.317Z,196.88
2018-07-25T07:32:23.382Z,196.88
2018-07-25T07:33:23.286Z,196.88
2018-07-25T07:34:23.264Z,191.25
2018-07-25T07:35:23.332Z,191.25
2018-07-25T07:36:23.436Z,191.25
2018-07-25T07:37:23.390Z,191.25
2018-07-25T07:38:23.349Z,191.25
2018-07-25T07:39:23.377Z,185.63
2018-07-25T07:40:23.440Z,185.63
2018-07-25T07:41:23.440Z,185.63
2018-07-25T07:42:23.462Z,185.63
2018-07-25T07:43:23.449Z,185.63
2018-07-25T07:44:23.457Z,180.00
2018-07-25T07:45:23.475Z,180.00
2018-07-25T07:46:23.549Z,180.00
2018-07-25T07:47:23.631Z,180.00
2018-07-25T07:48:23.548Z,180.00
2018-07-25T07:49:23.571Z,180.00
2018-07-25T07:50:23.590Z,180.00
2018-07-25T07:51:23.644Z,180.00
2018-07-25T07:52:23.661Z,180.00
2018-07-25T07:53:23.694Z,174.38
2018-07-25T07:54:23.663Z,174.38
2018-07-25T07:55:23.696Z,174.38
2018-07-25T07:56:23.715Z,174.38
2018-07-25T07:57:23.754Z,174.38
2018-07-25T07:58:23.755Z,168.75
2018-07-25T07:59:23.845Z,168.75
2018-07-25T08:00:23.777Z,168.75
2018-07-25T08:01:23.782Z,174.38
2018-07-25T08:02:23.804Z,168.75
2018-07-25T08:03:23.802Z,174.38
2018-07-25T08:04:23.848Z,174.38
2018-07-25T08:05:23.857Z,174.38
2018-07-25T08:06:23.860Z,168.75
2018-07-25T08:07:23.882Z,168.75
2018-07-25T08:08:23.977Z,168.75
2018-07-25T08:09:23.933Z,168.75
2018-07-25T08:10:23.942Z,168.75
2018-07-25T08:11:23.962Z,163.13
2018-07-25T08:12:23.967Z,163.13
2018-07-25T08:13:23.993Z,163.13
2018-07-25T08:14:24.062Z,163.13
2018-07-25T08:15:24.007Z,163.13
2018-07-25T08:16:24.036Z,163.13
2018-07-25T08:17:24.033Z,157.50
2018-07-25T08:18:24.118Z,157.50
2018-07-25T08:19:24.171Z,157.50
2018-07-25T08:20:24.162Z,157.50
2018-07-25T08:21:24.115Z,157.50
2018-07-25T08:22:24.209Z,157.50
2018-07-25T08:23:24.228Z,157.50
2018-07-25T08:24:24.181Z,157.50
2018-07-25T08:25:24.275Z,157.50
2018-07-25T08:26:24.241Z,157.50
2018-07-25T08:27:24.246Z,157.50
2018-07-25T08:28:24.384Z,151.88
2018-07-25T08:29:24.251Z,151.88
2018-07-25T08:30:24.347Z,151.88
2018-07-25T08:31:24.310Z,151.88
2018-07-25T08:32:24.344Z,151.88
2018-07-25T08:33:24.358Z,151.88
2018-07-25T08:34:24.490Z,151.88
2018-07-25T08:35:24.383Z,151.88
2018-07-25T08:36:24.419Z,151.88
2018-07-25T08:37:24.514Z,151.88
2018-07-25T08:38:24.414Z,151.88
2018-07-25T08:39:24.451Z,151.88
2018-07-25T08:40:24.484Z,151.88
2018-07-25T08:41:24.590Z,146.25
2018-07-25T08:42:24.498Z,146.25
2018-07-25T08:43:24.509Z,146.25
2018-07-25T08:44:24.562Z,146.25
2018-07-25T08:45:24.569Z,146.25
2018-07-25T08:46:24.602Z,146.25
2018-07-25T08:47:24.632Z,146.25
2018-07-25T08:48:24.595Z,146.25
2018-07-25T08:49:24.622Z,140.63
2018-07-25T08:50:24.624Z,140.63
2018-07-25T08:51:24.661Z,146.25
2018-07-25T08:52:24.915Z,146.25
2018-07-25T08:53:24.669Z,146.25
2018-07-25T08:54:24.702Z,146.25
2018-07-25T08:55:24.715Z,146.25
2018-07-25T08:56:24.728Z,146.25
2018-07-25T08:57:25.028Z,146.25
2018-07-25T08:58:24.797Z,146.25
2018-07-25T08:59:24.824Z,146.25
2018-07-25T09:00:24.931Z,151.88
2018-07-25T09:01:24.877Z,157.50
2018-07-25T09:02:25.237Z,151.88
2018-07-25T09:03:24.893Z,151.88
2018-07-25T09:04:24.975Z,146.25
2018-07-25T09:05:25.488Z,146.25
2018-07-25T09:06:24.943Z,151.88
2018-07-25T09:07:24.951Z,185.63
2018-07-25T09:08:25.010Z,180.00
2018-07-25T09:09:24.961Z,157.50
2018-07-25T09:10:25.041Z,157.50
2018-07-25T09:11:25.016Z,168.75
2018-07-25T09:12:25.008Z,180.00
2018-07-25T09:13:25.139Z,185.63
2018-07-25T09:14:25.047Z,185.63
2018-07-25T09:15:25.067Z,180.00
2018-07-25T09:16:25.079Z,163.13
2018-07-25T09:17:25.881Z,157.50
2018-07-25T09:18:25.134Z,157.50
2018-07-25T09:19:25.117Z,151.88
2018-07-25T09:20:25.132Z,151.88
2018-07-25T09:21:25.187Z,157.50
2018-07-25T09:22:25.214Z,157.50
2018-07-25T09:23:25.222Z,157.50
2018-07-25T09:24:25.262Z,163.13
2018-07-25T09:25:25.263Z,157.50
2018-07-25T09:26:25.234Z,157.50
2018-07-25T09:27:25.266Z,151.88
2018-07-25T09:28:25.262Z,151.88
2018-07-25T09:29:25.346Z,157.50
2018-07-25T09:30:25.337Z,157.50
2018-07-25T09:31:25.375Z,163.13
2018-07-25T09:32:25.314Z,174.38
2018-07-25T09:33:25.402Z,185.63
2018-07-25T09:34:25.416Z,185.63
2018-07-25T09:35:25.419Z,213.75
2018-07-25T09:36:25.411Z,241.88
2018-07-25T09:37:25.485Z,253.13
2018-07-25T09:38:25.468Z,225.00
2018-07-25T09:39:25.483Z,213.75
2018-07-25T09:40:25.473Z,202.50
2018-07-25T09:41:25.533Z,196.88
2018-07-25T09:42:25.590Z,196.88
2018-07-25T09:43:25.553Z,185.63
2018-07-25T09:44:25.567Z,180.00
2018-07-25T09:45:25.575Z,185.63
2018-07-25T09:46:25.605Z,185.63
2018-07-25T09:47:25.706Z,180.00
2018-07-25T09:48:25.610Z,168.75
2018-07-25T09:49:25.636Z,163.13
2018-07-25T09:50:25.692Z,163.13
2018-07-25T09:51:25.852Z,168.75
2018-07-25T09:52:25.748Z,174.38
2018-07-25T09:53:25.731Z,174.38
2018-07-25T09:54:25.719Z,174.38
2018-07-25T09:55:25.791Z,174.38
2018-07-25T09:56:25.762Z,168.75
2018-07-25T09:57:25.769Z,163.13
2018-07-25T09:58:25.788Z,157.50
2018-07-25T09:59:25.803Z,163.13
2018-07-25T10:00:25.944Z,163.13
2018-07-25T10:01:25.829Z,168.75
2018-07-25T10:02:25.838Z,180.00
2018-07-25T10:03:25.876Z,196.88
2018-07-25T10:04:25.906Z,208.13
2018-07-25T10:05:25.925Z,213.75
2018-07-25T10:06:26.014Z,219.38
2018-07-25T10:07:25.955Z,230.63
2018-07-25T10:08:25.965Z,225.00
2018-07-25T10:09:25.997Z,230.63
2018-07-25T10:10:25.996Z,230.63
2018-07-25T10:11:26.038Z,230.63
2018-07-25T10:12:26.040Z,230.63
2018-07-25T10:13:26.040Z,236.25
2018-07-25T10:14:26.156Z,241.88
2018-07-25T10:15:26.076Z,264.38
2018-07-25T10:16:26.098Z,270.00
2018-07-25T10:17:26.116Z,258.75
2018-07-25T10:18:26.185Z,253.13
2018-07-25T10:19:26.165Z,270.00
2018-07-25T10:20:26.533Z,292.50
2018-07-25T10:21:26.222Z,292.50
2018-07-25T10:22:26.222Z,281.25
2018-07-25T10:23:26.235Z,298.13
2018-07-25T10:24:26.265Z,315.00
2018-07-25T10:25:26.324Z,275.63
2018-07-25T10:26:26.302Z,264.38
2018-07-25T10:27:26.388Z,264.38
2018-07-25T10:28:26.353Z,292.50
2018-07-25T10:29:26.354Z,303.75
2018-07-25T10:30:26.414Z,315.00
2018-07-25T10:31:26.423Z,309.38
2018-07-25T10:32:26.376Z,281.25
2018-07-25T10:33:26.393Z,264.38
2018-07-25T10:34:26.431Z,258.75
2018-07-25T10:35:26.409Z,247.50
2018-07-25T10:36:26.486Z,241.88
2018-07-25T10:37:26.466Z,247.50
2018-07-25T10:38:26.489Z,247.50
2018-07-25T10:39:26.528Z,241.88
2018-07-25T10:40:26.546Z,225.00
2018-07-25T10:41:26.597Z,202.50
2018-07-25T10:42:26.580Z,202.50
2018-07-25T10:43:26.583Z,196.88
2018-07-25T10:44:26.602Z,196.88
2018-07-25T10:45:26.621Z,196.88
2018-07-25T10:46:26.738Z,202.50
2018-07-25T10:47:26.630Z,202.50
2018-07-25T10:48:26.690Z,213.75
2018-07-25T10:49:26.675Z,213.75
2018-07-25T10:50:26.691Z,202.50
2018-07-25T10:51:26.745Z,191.25
2018-07-25T10:52:26.712Z,185.63
2018-07-25T10:53:26.754Z,191.25
2018-07-25T10:54:26.789Z,185.63
2018-07-25T10:55:26.784Z,180.00
2018-07-25T10:56:26.788Z,180.00
2018-07-25T10:57:26.786Z,180.00
2018-07-25T10:58:26.824Z,180.00
2018-07-25T10:59:26.846Z,174.38
2018-07-25T11:00:26.906Z,180.00
2018-07-25T11:01:26.859Z,180.00
2018-07-25T11:02:26.909Z,180.00
2018-07-25T11:03:26.898Z,185.63
2018-07-25T11:04:26.960Z,180.00
2018-07-25T11:05:26.941Z,180.00
2018-07-25T11:06:26.957Z,174.38
2018-07-25T11:07:26.988Z,168.75
2018-07-25T11:08:26.977Z,151.88
2018-07-25T11:09:27.051Z,140.63
2018-07-25T11:10:27.040Z,146.25
2018-07-25T11:11:27.083Z,129.38
2018-07-25T11:12:27.090Z,135.00
2018-07-25T11:13:27.096Z,135.00
2018-07-25T11:14:27.162Z,135.00
2018-07-25T11:15:27.252Z,135.00
2018-07-25T11:16:27.218Z,135.00
2018-07-25T11:17:27.171Z,140.63
2018-07-25T11:18:27.182Z,146.25
2018-07-25T11:19:27.210Z,157.50
2018-07-25T11:20:27.208Z,157.50
2018-07-25T11:21:27.279Z,163.13
2018-07-25T11:22:27.230Z,168.75
2018-07-25T11:23:27.261Z,168.75
2018-07-25T11:24:27.290Z,163.13
2018-07-25T11:25:27.369Z,163.13
2018-07-25T11:26:27.360Z,168.75
2018-07-25T11:27:27.410Z,163.13
2018-07-25T11:28:27.372Z,157.50
2018-07-25T11:29:27.692Z,157.50
2018-07-25T11:30:27.366Z,151.88
2018-07-25T11:31:27.447Z,157.50
2018-07-25T11:32:27.478Z,157.50
2018-07-25T11:33:27.466Z,157.50
2018-07-25T11:34:27.450Z,157.50
2018-07-25T11:35:27.462Z,157.50
2018-07-25T11:36:27.490Z,157.50
2018-07-25T11:37:27.517Z,157.50
2018-07-25T11:38:27.568Z,163.13
2018-07-25T11:39:27.604Z,163.13
2018-07-25T11:40:27.568Z,163.13
2018-07-25T11:41:27.581Z,168.75
2018-07-25T11:42:27.763Z,163.13
2018-07-25T11:43:27.791Z,163.13
2018-07-25T11:44:27.614Z,163.13
2018-07-25T11:45:27.690Z,163.13
2018-07-25T11:46:27.689Z,163.13
2018-07-25T11:47:27.728Z,168.75
2018-07-25T11:48:27.704Z,163.13
2018-07-25T11:49:27.820Z,163.13
2018-07-25T11:50:27.784Z,163.13
2018-07-25T11:51:27.750Z,168.75
2018-07-25T11:52:27.769Z,168.75
2018-07-25T11:53:27.821Z,163.13
2018-07-25T11:54:27.799Z,163.13
2018-07-25T11:55:27.921Z,168.75
2018-07-25T11:56:27.838Z,168.75
2018-07-25T11:57:27.876Z,168.75
2018-07-25T11:58:27.906Z,157.50
2018-07-25T11:59:27.904Z,157.50
2018-07-25T12:00:27.895Z,157.50
2018-07-25T12:01:27.985Z,151.88
2018-07-25T12:02:27.928Z,151.88
2018-07-25T12:03:27.974Z,151.88
2018-07-25T12:04:28.026Z,151.88
2018-07-25T12:05:27.992Z,151.88
2018-07-25T12:06:28.032Z,151.88
2018-07-25T12:07:28.123Z,151.88
2018-07-25T12:08:28.055Z,151.88
2018-07-25T12:09:28.094Z,151.88
2018-07-25T12:10:28.064Z,151.88
2018-07-25T12:11:28.093Z,151.88
2018-07-25T12:12:28.093Z,151.88
2018-07-25T12:13:28.166Z,151.88
2018-07-25T12:14:28.173Z,151.88
2018-07-25T12:15:28.167Z,151.88
2018-07-25T12:16:28.169Z,151.88
2018-07-25T12:17:28.192Z,151.88
2018-07-25T12:18:28.250Z,157.50
2018-07-25T12:19:28.230Z,151.88
2018-07-25T12:20:28.261Z,151.88
2018-07-25T12:21:28.381Z,157.50
2018-07-25T12:22:28.288Z,157.50
2018-07-25T12:23:28.311Z,163.13
2018-07-25T12:24:28.353Z,157.50
2018-07-25T12:25:28.356Z,151.88
2018-07-25T12:26:28.408Z,146.25
2018-07-25T12:27:28.392Z,146.25
2018-07-25T12:28:28.429Z,151.88
2018-07-25T12:29:28.452Z,151.88
2018-07-25T12:30:28.425Z,157.50
2018-07-25T12:31:28.516Z,157.50
2018-07-25T12:32:28.462Z,163.13
2018-07-25T12:33:28.518Z,168.75
2018-07-25T12:34:28.512Z,163.13
2018-07-25T12:35:28.528Z,157.50
2018-07-25T12:36:28.553Z,157.50
2018-07-25T12:37:28.558Z,157.50
2018-07-25T12:38:28.665Z,163.13
2018-07-25T12:39:28.589Z,157.50
2018-07-25T12:40:28.607Z,151.88
2018-07-25T12:41:28.607Z,146.25
2018-07-25T12:42:28.647Z,146.25